sensor_id;sensor_type;location;lat;lon;timestamp;P1;durP1;ratioP1;P2;durP2;ratioP2
2940;SDS011;1480;51.456;6.670;2023-08-30T00:00:13;6.07;;;5.00;;
2940;SDS011;1480;51.456;6.670;2023-08-30T00:02:42;6.63;;;5.20;;
2940;SDS011;1480;51.456;6.670;2023-08-30T00:05:11;7.23;;;5.60;;
2940;SDS011;1480;51.456;6.670;2023-08-30T00:07:37;7.37;;;4.93;;
2940;SDS011;1480;51.456;6.670;2023-08-30T00:10:05;6.57;;;5.07;;
2940;SDS011;1480;51.456;6.670;2023-08-30T00:12:33;6.37;;;4.70;;
2940;SDS011;1480;51.456;6.670;2023-08-30T00:15:00;7.63;;;5.50;;
2940;SDS011;1480;51.456;6.670;2023-08-30T00:17:27;6.57;;;5.17;;
2940;SDS011;1480;51.456;6.670;2023-08-30T00:19:53;6.33;;;5.23;;
2940;SDS011;1480;51.456;6.670;2023-08-30T00:22:22;10.03;;;6.43;;
2940;SDS011;1480;51.456;6.670;2023-08-30T00:24:49;6.90;;;6.00;;
2940;SDS011;1480;51.456;6.670;2023-08-30T00:27:15;8.47;;;5.50;;
2940;SDS011;1480;51.456;6.670;2023-08-30T00:29:42;8.47;;;6.17;;
2940;SDS011;1480;51.456;6.670;2023-08-30T00:32:09;8.57;;;5.90;;
2940;SDS011;1480;51.456;6.670;2023-08-30T00:34:37;6.80;;;4.70;;
2940;SDS011;1480;51.456;6.670;2023-08-30T00:37:03;8.13;;;6.07;;
2940;SDS011;1480;51.456;6.670;2023-08-30T00:39:31;9.77;;;6.33;;
2940;SDS011;1480;51.456;6.670;2023-08-30T00:41:59;9.87;;;6.90;;
2940;SDS011;1480;51.456;6.670;2023-08-30T00:44:30;9.47;;;7.50;;
2940;SDS011;1480;51.456;6.670;2023-08-30T00:46:57;7.80;;;5.93;;
2940;SDS011;1480;51.456;6.670;2023-08-30T00:49:25;9.33;;;7.10;;
2940;SDS011;1480;51.456;6.670;2023-08-30T00:51:52;10.73;;;6.43;;
2940;SDS011;1480;51.456;6.670;2023-08-30T00:54:19;9.70;;;6.47;;
2940;SDS011;1480;51.456;6.670;2023-08-30T00:56:47;11.43;;;7.93;;
2940;SDS011;1480;51.456;6.670;2023-08-30T00:59:15;12.07;;;7.27;;
2940;SDS011;1480;51.456;6.670;2023-08-30T01:01:42;8.60;;;6.73;;
2940;SDS011;1480;51.456;6.670;2023-08-30T01:04:09;8.87;;;6.80;;
2940;SDS011;1480;51.456;6.670;2023-08-30T01:06:36;7.43;;;5.57;;
2940;SDS011;1480;51.456;6.670;2023-08-30T01:09:05;9.43;;;7.20;;
2940;SDS011;1480;51.456;6.670;2023-08-30T01:11:35;9.50;;;6.83;;
2940;SDS011;1480;51.456;6.670;2023-08-30T01:14:07;8.43;;;6.97;;
2940;SDS011;1480;51.456;6.670;2023-08-30T01:16:35;8.37;;;6.77;;
2940;SDS011;1480;51.456;6.670;2023-08-30T01:19:04;9.53;;;6.93;;
2940;SDS011;1480;51.456;6.670;2023-08-30T01:21:48;11.23;;;7.30;;
2940;SDS011;1480;51.456;6.670;2023-08-30T01:24:19;10.00;;;6.87;;
2940;SDS011;1480;51.456;6.670;2023-08-30T01:27:01;9.43;;;6.00;;
2940;SDS011;1480;51.456;6.670;2023-08-30T01:29:34;7.80;;;5.70;;
2940;SDS011;1480;51.456;6.670;2023-08-30T01:32:03;9.57;;;6.37;;
2940;SDS011;1480;51.456;6.670;2023-08-30T01:34:31;8.93;;;5.97;;
2940;SDS011;1480;51.456;6.670;2023-08-30T01:36:58;9.03;;;6.70;;
2940;SDS011;1480;51.456;6.670;2023-08-30T01:39:26;9.03;;;6.27;;
2940;SDS011;1480;51.456;6.670;2023-08-30T01:41:53;11.10;;;7.23;;
2940;SDS011;1480;51.456;6.670;2023-08-30T01:44:25;8.40;;;6.90;;
2940;SDS011;1480;51.456;6.670;2023-08-30T01:46:53;9.20;;;6.27;;
2940;SDS011;1480;51.456;6.670;2023-08-30T01:49:19;10.00;;;7.80;;
2940;SDS011;1480;51.456;6.670;2023-08-30T01:51:47;8.67;;;6.33;;
2940;SDS011;1480;51.456;6.670;2023-08-30T01:54:14;10.10;;;6.73;;
2940;SDS011;1480;51.456;6.670;2023-08-30T01:56:44;8.13;;;6.97;;
2940;SDS011;1480;51.456;6.670;2023-08-30T01:59:11;12.77;;;7.03;;
2940;SDS011;1480;51.456;6.670;2023-08-30T02:01:39;8.23;;;6.40;;
2940;SDS011;1480;51.456;6.670;2023-08-30T02:04:06;9.60;;;7.87;;
2940;SDS011;1480;51.456;6.670;2023-08-30T02:06:34;9.97;;;7.10;;
2940;SDS011;1480;51.456;6.670;2023-08-30T02:09:03;10.03;;;7.87;;
2940;SDS011;1480;51.456;6.670;2023-08-30T02:11:34;7.70;;;6.90;;
2940;SDS011;1480;51.456;6.670;2023-08-30T02:14:01;10.80;;;6.90;;
2940;SDS011;1480;51.456;6.670;2023-08-30T02:16:32;9.73;;;7.77;;
2940;SDS011;1480;51.456;6.670;2023-08-30T02:19:01;9.43;;;7.40;;
2940;SDS011;1480;51.456;6.670;2023-08-30T02:21:28;10.47;;;7.20;;
2940;SDS011;1480;51.456;6.670;2023-08-30T02:23:55;9.73;;;7.87;;
2940;SDS011;1480;51.456;6.670;2023-08-30T02:26:21;9.80;;;7.60;;
2940;SDS011;1480;51.456;6.670;2023-08-30T02:28:48;12.80;;;7.90;;
2940;SDS011;1480;51.456;6.670;2023-08-30T02:31:15;9.80;;;7.70;;
2940;SDS011;1480;51.456;6.670;2023-08-30T02:33:44;10.83;;;7.47;;
2940;SDS011;1480;51.456;6.670;2023-08-30T02:36:12;12.20;;;7.50;;
2940;SDS011;1480;51.456;6.670;2023-08-30T02:38:39;8.13;;;6.90;;
2940;SDS011;1480;51.456;6.670;2023-08-30T02:41:06;8.40;;;6.90;;
2940;SDS011;1480;51.456;6.670;2023-08-30T02:43:32;9.53;;;6.47;;
2940;SDS011;1480;51.456;6.670;2023-08-30T02:45:59;7.97;;;6.67;;
2940;SDS011;1480;51.456;6.670;2023-08-30T02:48:28;9.20;;;6.63;;
2940;SDS011;1480;51.456;6.670;2023-08-30T02:50:55;8.90;;;7.27;;
2940;SDS011;1480;51.456;6.670;2023-08-30T02:53:24;11.70;;;8.17;;
2940;SDS011;1480;51.456;6.670;2023-08-30T02:55:51;10.60;;;7.10;;
2940;SDS011;1480;51.456;6.670;2023-08-30T02:58:20;10.07;;;8.03;;
2940;SDS011;1480;51.456;6.670;2023-08-30T03:00:47;8.13;;;6.83;;
2940;SDS011;1480;51.456;6.670;2023-08-30T03:03:14;10.87;;;6.20;;
2940;SDS011;1480;51.456;6.670;2023-08-30T03:05:41;8.13;;;6.50;;
2940;SDS011;1480;51.456;6.670;2023-08-30T03:08:08;10.70;;;7.50;;
2940;SDS011;1480;51.456;6.670;2023-08-30T03:10:36;9.97;;;7.53;;
2940;SDS011;1480;51.456;6.670;2023-08-30T03:13:03;10.43;;;7.30;;
2940;SDS011;1480;51.456;6.670;2023-08-30T03:15:31;11.53;;;7.00;;
2940;SDS011;1480;51.456;6.670;2023-08-30T03:17:59;10.37;;;7.33;;
2940;SDS011;1480;51.456;6.670;2023-08-30T03:20:26;10.27;;;6.87;;
2940;SDS011;1480;51.456;6.670;2023-08-30T03:22:55;8.57;;;6.57;;
2940;SDS011;1480;51.456;6.670;2023-08-30T03:25:22;7.83;;;6.63;;
2940;SDS011;1480;51.456;6.670;2023-08-30T03:27:50;8.70;;;6.80;;
2940;SDS011;1480;51.456;6.670;2023-08-30T03:30:17;8.77;;;7.13;;
2940;SDS011;1480;51.456;6.670;2023-08-30T03:32:44;10.60;;;6.80;;
2940;SDS011;1480;51.456;6.670;2023-08-30T03:35:11;7.83;;;7.00;;
2940;SDS011;1480;51.456;6.670;2023-08-30T03:37:42;8.40;;;6.37;;
2940;SDS011;1480;51.456;6.670;2023-08-30T03:40:09;11.53;;;8.40;;
2940;SDS011;1480;51.456;6.670;2023-08-30T03:42:37;9.60;;;7.70;;
2940;SDS011;1480;51.456;6.670;2023-08-30T03:45:07;7.90;;;6.37;;
2940;SDS011;1480;51.456;6.670;2023-08-30T03:47:36;10.40;;;6.87;;
2940;SDS011;1480;51.456;6.670;2023-08-30T03:50:04;10.10;;;6.90;;
2940;SDS011;1480;51.456;6.670;2023-08-30T03:52:33;10.63;;;6.90;;
2940;SDS011;1480;51.456;6.670;2023-08-30T03:55:00;9.17;;;7.10;;
2940;SDS011;1480;51.456;6.670;2023-08-30T03:57:28;9.73;;;7.13;;
2940;SDS011;1480;51.456;6.670;2023-08-30T03:59:55;8.73;;;7.50;;
2940;SDS011;1480;51.456;6.670;2023-08-30T04:02:23;13.07;;;7.60;;
2940;SDS011;1480;51.456;6.670;2023-08-30T04:04:50;11.20;;;7.87;;
2940;SDS011;1480;51.456;6.670;2023-08-30T04:07:16;11.70;;;8.60;;
2940;SDS011;1480;51.456;6.670;2023-08-30T04:09:43;8.97;;;7.17;;
2940;SDS011;1480;51.456;6.670;2023-08-30T04:12:10;12.30;;;8.07;;
2940;SDS011;1480;51.456;6.670;2023-08-30T04:14:37;10.37;;;6.67;;
2940;SDS011;1480;51.456;6.670;2023-08-30T04:17:03;9.50;;;7.77;;
2940;SDS011;1480;51.456;6.670;2023-08-30T04:19:31;12.77;;;8.83;;
2940;SDS011;1480;51.456;6.670;2023-08-30T04:21:58;11.87;;;8.63;;
2940;SDS011;1480;51.456;6.670;2023-08-30T04:24:25;12.70;;;8.70;;
2940;SDS011;1480;51.456;6.670;2023-08-30T04:26:52;13.10;;;7.90;;
2940;SDS011;1480;51.456;6.670;2023-08-30T04:29:19;12.23;;;8.10;;
2940;SDS011;1480;51.456;6.670;2023-08-30T04:31:46;14.77;;;8.40;;
2940;SDS011;1480;51.456;6.670;2023-08-30T04:34:13;9.60;;;7.50;;
2940;SDS011;1480;51.456;6.670;2023-08-30T04:36:42;18.47;;;9.90;;
2940;SDS011;1480;51.456;6.670;2023-08-30T04:39:12;9.80;;;7.27;;
2940;SDS011;1480;51.456;6.670;2023-08-30T04:41:39;13.60;;;9.07;;
2940;SDS011;1480;51.456;6.670;2023-08-30T04:44:06;12.90;;;9.43;;
2940;SDS011;1480;51.456;6.670;2023-08-30T04:46:33;11.07;;;8.17;;
2940;SDS011;1480;51.456;6.670;2023-08-30T04:49:00;14.63;;;8.67;;
2940;SDS011;1480;51.456;6.670;2023-08-30T04:51:27;11.63;;;9.40;;
2940;SDS011;1480;51.456;6.670;2023-08-30T04:53:56;13.40;;;8.80;;
2940;SDS011;1480;51.456;6.670;2023-08-30T04:56:23;13.20;;;8.90;;
2940;SDS011;1480;51.456;6.670;2023-08-30T04:58:50;16.67;;;9.40;;
2940;SDS011;1480;51.456;6.670;2023-08-30T05:01:17;10.80;;;9.23;;
2940;SDS011;1480;51.456;6.670;2023-08-30T05:03:48;12.93;;;8.87;;
2940;SDS011;1480;51.456;6.670;2023-08-30T05:06:16;14.30;;;7.20;;
2940;SDS011;1480;51.456;6.670;2023-08-30T05:08:43;15.80;;;9.47;;
2940;SDS011;1480;51.456;6.670;2023-08-30T05:11:11;12.37;;;10.00;;
2940;SDS011;1480;51.456;6.670;2023-08-30T05:13:38;12.37;;;8.60;;
2940;SDS011;1480;51.456;6.670;2023-08-30T05:16:05;13.00;;;10.27;;
2940;SDS011;1480;51.456;6.670;2023-08-30T05:18:32;15.80;;;10.73;;
2940;SDS011;1480;51.456;6.670;2023-08-30T05:21:00;12.97;;;8.50;;
2940;SDS011;1480;51.456;6.670;2023-08-30T05:23:29;15.70;;;9.97;;
2940;SDS011;1480;51.456;6.670;2023-08-30T05:25:56;13.93;;;8.83;;
2940;SDS011;1480;51.456;6.670;2023-08-30T05:28:24;16.93;;;12.27;;
2940;SDS011;1480;51.456;6.670;2023-08-30T05:30:51;15.60;;;9.97;;
2940;SDS011;1480;51.456;6.670;2023-08-30T05:33:35;14.20;;;9.17;;
2940;SDS011;1480;51.456;6.670;2023-08-30T05:36:26;13.27;;;9.53;;
2940;SDS011;1480;51.456;6.670;2023-08-30T05:39:17;14.13;;;10.20;;
2940;SDS011;1480;51.456;6.670;2023-08-30T05:41:50;13.60;;;9.60;;
2940;SDS011;1480;51.456;6.670;2023-08-30T05:44:18;12.60;;;9.07;;
2940;SDS011;1480;51.456;6.670;2023-08-30T05:46:45;16.70;;;10.90;;
2940;SDS011;1480;51.456;6.670;2023-08-30T05:49:13;11.57;;;9.23;;
2940;SDS011;1480;51.456;6.670;2023-08-30T05:51:40;18.53;;;11.60;;
2940;SDS011;1480;51.456;6.670;2023-08-30T05:54:07;14.40;;;9.53;;
2940;SDS011;1480;51.456;6.670;2023-08-30T05:56:34;15.43;;;10.63;;
2940;SDS011;1480;51.456;6.670;2023-08-30T05:59:00;15.10;;;9.70;;
2940;SDS011;1480;51.456;6.670;2023-08-30T06:01:29;15.30;;;9.80;;
2940;SDS011;1480;51.456;6.670;2023-08-30T06:03:55;14.20;;;9.70;;
2940;SDS011;1480;51.456;6.670;2023-08-30T06:06:22;17.90;;;10.00;;
2940;SDS011;1480;51.456;6.670;2023-08-30T06:08:49;13.53;;;9.37;;
2940;SDS011;1480;51.456;6.670;2023-08-30T06:11:16;13.63;;;11.10;;
2940;SDS011;1480;51.456;6.670;2023-08-30T06:13:43;16.30;;;10.90;;
2940;SDS011;1480;51.456;6.670;2023-08-30T06:16:10;23.30;;;11.17;;
2940;SDS011;1480;51.456;6.670;2023-08-30T06:18:38;12.67;;;8.47;;
2940;SDS011;1480;51.456;6.670;2023-08-30T06:21:04;14.33;;;9.40;;
2940;SDS011;1480;51.456;6.670;2023-08-30T06:23:32;15.40;;;10.27;;
2940;SDS011;1480;51.456;6.670;2023-08-30T06:26:02;11.83;;;9.63;;
2940;SDS011;1480;51.456;6.670;2023-08-30T06:28:29;16.93;;;10.50;;
2940;SDS011;1480;51.456;6.670;2023-08-30T06:30:56;16.50;;;10.67;;
2940;SDS011;1480;51.456;6.670;2023-08-30T06:33:23;14.00;;;10.60;;
2940;SDS011;1480;51.456;6.670;2023-08-30T06:35:52;17.00;;;10.60;;
2940;SDS011;1480;51.456;6.670;2023-08-30T06:38:20;12.60;;;10.00;;
2940;SDS011;1480;51.456;6.670;2023-08-30T06:40:47;14.07;;;9.33;;
2940;SDS011;1480;51.456;6.670;2023-08-30T06:43:14;11.30;;;8.90;;
2940;SDS011;1480;51.456;6.670;2023-08-30T06:45:41;11.93;;;9.30;;
2940;SDS011;1480;51.456;6.670;2023-08-30T06:48:11;13.03;;;8.93;;
2940;SDS011;1480;51.456;6.670;2023-08-30T06:50:38;11.67;;;9.23;;
2940;SDS011;1480;51.456;6.670;2023-08-30T06:53:06;12.93;;;8.60;;
2940;SDS011;1480;51.456;6.670;2023-08-30T06:55:35;13.33;;;7.97;;
2940;SDS011;1480;51.456;6.670;2023-08-30T06:58:03;14.53;;;8.93;;
2940;SDS011;1480;51.456;6.670;2023-08-30T07:00:30;11.70;;;9.00;;
2940;SDS011;1480;51.456;6.670;2023-08-30T07:02:56;15.63;;;8.20;;
2940;SDS011;1480;51.456;6.670;2023-08-30T07:05:24;10.50;;;6.87;;
2940;SDS011;1480;51.456;6.670;2023-08-30T07:07:51;12.97;;;8.80;;
2940;SDS011;1480;51.456;6.670;2023-08-30T07:10:19;13.07;;;8.83;;
2940;SDS011;1480;51.456;6.670;2023-08-30T07:12:46;14.50;;;8.50;;
2940;SDS011;1480;51.456;6.670;2023-08-30T07:15:14;11.40;;;8.50;;
2940;SDS011;1480;51.456;6.670;2023-08-30T07:17:42;10.40;;;7.60;;
2940;SDS011;1480;51.456;6.670;2023-08-30T07:20:09;10.53;;;7.20;;
2940;SDS011;1480;51.456;6.670;2023-08-30T07:22:36;10.17;;;7.57;;
2940;SDS011;1480;51.456;6.670;2023-08-30T07:25:03;9.80;;;7.63;;
2940;SDS011;1480;51.456;6.670;2023-08-30T07:27:32;9.00;;;6.30;;
2940;SDS011;1480;51.456;6.670;2023-08-30T07:29:59;11.20;;;5.70;;
2940;SDS011;1480;51.456;6.670;2023-08-30T07:32:26;9.97;;;6.40;;
2940;SDS011;1480;51.456;6.670;2023-08-30T07:34:53;8.00;;;6.10;;
2940;SDS011;1480;51.456;6.670;2023-08-30T07:37:20;7.93;;;5.20;;
2940;SDS011;1480;51.456;6.670;2023-08-30T07:39:46;7.50;;;6.10;;
2940;SDS011;1480;51.456;6.670;2023-08-30T07:42:16;8.10;;;5.43;;
2940;SDS011;1480;51.456;6.670;2023-08-30T07:44:45;8.43;;;5.37;;
2940;SDS011;1480;51.456;6.670;2023-08-30T07:47:11;10.63;;;6.40;;
2940;SDS011;1480;51.456;6.670;2023-08-30T07:49:38;7.30;;;4.80;;
2940;SDS011;1480;51.456;6.670;2023-08-30T07:52:05;5.70;;;4.33;;
2940;SDS011;1480;51.456;6.670;2023-08-30T07:54:33;5.93;;;3.80;;
2940;SDS011;1480;51.456;6.670;2023-08-30T07:57:00;9.50;;;4.93;;
2940;SDS011;1480;51.456;6.670;2023-08-30T07:59:27;4.87;;;3.97;;
2940;SDS011;1480;51.456;6.670;2023-08-30T08:01:56;6.53;;;4.13;;
2940;SDS011;1480;51.456;6.670;2023-08-30T08:04:22;5.47;;;3.70;;
2940;SDS011;1480;51.456;6.670;2023-08-30T08:06:49;4.63;;;3.77;;
2940;SDS011;1480;51.456;6.670;2023-08-30T08:09:16;7.20;;;3.87;;
2940;SDS011;1480;51.456;6.670;2023-08-30T08:11:43;5.40;;;4.10;;
2940;SDS011;1480;51.456;6.670;2023-08-30T08:14:10;4.27;;;3.00;;
2940;SDS011;1480;51.456;6.670;2023-08-30T08:16:37;4.37;;;3.20;;
2940;SDS011;1480;51.456;6.670;2023-08-30T08:19:06;5.07;;;3.30;;
2940;SDS011;1480;51.456;6.670;2023-08-30T08:21:35;5.63;;;3.47;;
2940;SDS011;1480;51.456;6.670;2023-08-30T08:24:02;5.60;;;3.73;;
2940;SDS011;1480;51.456;6.670;2023-08-30T08:26:29;4.70;;;3.70;;
2940;SDS011;1480;51.456;6.670;2023-08-30T08:28:56;4.77;;;2.90;;
2940;SDS011;1480;51.456;6.670;2023-08-30T08:31:23;6.60;;;2.93;;
2940;SDS011;1480;51.456;6.670;2023-08-30T08:33:50;8.70;;;3.70;;
2940;SDS011;1480;51.456;6.670;2023-08-30T08:36:19;4.63;;;3.27;;
2940;SDS011;1480;51.456;6.670;2023-08-30T08:38:46;4.70;;;3.13;;
2940;SDS011;1480;51.456;6.670;2023-08-30T08:41:13;6.80;;;3.70;;
2940;SDS011;1480;51.456;6.670;2023-08-30T08:43:42;3.87;;;3.03;;
2940;SDS011;1480;51.456;6.670;2023-08-30T08:46:09;4.57;;;2.97;;
2940;SDS011;1480;51.456;6.670;2023-08-30T08:48:37;5.10;;;3.53;;
2940;SDS011;1480;51.456;6.670;2023-08-30T08:51:06;3.90;;;3.30;;
2940;SDS011;1480;51.456;6.670;2023-08-30T08:53:34;3.97;;;3.00;;
2940;SDS011;1480;51.456;6.670;2023-08-30T08:56:02;5.40;;;4.00;;
2940;SDS011;1480;51.456;6.670;2023-08-30T08:58:29;5.40;;;2.70;;
2940;SDS011;1480;51.456;6.670;2023-08-30T09:00:56;6.37;;;3.80;;
2940;SDS011;1480;51.456;6.670;2023-08-30T09:03:24;5.90;;;3.70;;
2940;SDS011;1480;51.456;6.670;2023-08-30T09:05:51;5.87;;;3.57;;
2940;SDS011;1480;51.456;6.670;2023-08-30T09:08:19;5.07;;;3.07;;
2940;SDS011;1480;51.456;6.670;2023-08-30T09:10:49;4.87;;;3.67;;
2940;SDS011;1480;51.456;6.670;2023-08-30T09:13:16;6.90;;;3.70;;
2940;SDS011;1480;51.456;6.670;2023-08-30T09:15:43;8.70;;;4.37;;
2940;SDS011;1480;51.456;6.670;2023-08-30T09:18:19;4.97;;;3.57;;
2940;SDS011;1480;51.456;6.670;2023-08-30T09:20:52;4.70;;;3.73;;
2940;SDS011;1480;51.456;6.670;2023-08-30T09:23:19;6.03;;;4.17;;
2940;SDS011;1480;51.456;6.670;2023-08-30T09:25:46;7.53;;;4.53;;
2940;SDS011;1480;51.456;6.670;2023-08-30T09:28:14;5.80;;;4.23;;
2940;SDS011;1480;51.456;6.670;2023-08-30T09:30:41;7.43;;;4.83;;
2940;SDS011;1480;51.456;6.670;2023-08-30T09:33:08;8.60;;;5.03;;
2940;SDS011;1480;51.456;6.670;2023-08-30T09:35:44;7.23;;;4.93;;
2940;SDS011;1480;51.456;6.670;2023-08-30T09:38:17;7.40;;;5.13;;
2940;SDS011;1480;51.456;6.670;2023-08-30T09:40:44;10.00;;;4.97;;
2940;SDS011;1480;51.456;6.670;2023-08-30T09:43:11;5.50;;;4.27;;
2940;SDS011;1480;51.456;6.670;2023-08-30T09:45:41;7.27;;;4.67;;
2940;SDS011;1480;51.456;6.670;2023-08-30T09:48:08;6.80;;;4.93;;
2940;SDS011;1480;51.456;6.670;2023-08-30T09:50:35;8.47;;;5.00;;
2940;SDS011;1480;51.456;6.670;2023-08-30T09:53:04;5.20;;;4.07;;
2940;SDS011;1480;51.456;6.670;2023-08-30T09:55:34;7.33;;;5.07;;
2940;SDS011;1480;51.456;6.670;2023-08-30T09:58:02;7.70;;;4.97;;
2940;SDS011;1480;51.456;6.670;2023-08-30T10:00:29;7.90;;;5.33;;
2940;SDS011;1480;51.456;6.670;2023-08-30T10:02:59;6.60;;;5.20;;
2940;SDS011;1480;51.456;6.670;2023-08-30T10:05:27;7.67;;;5.40;;
2940;SDS011;1480;51.456;6.670;2023-08-30T10:07:54;8.33;;;5.80;;
2940;SDS011;1480;51.456;6.670;2023-08-30T10:10:21;5.77;;;5.10;;
2940;SDS011;1480;51.456;6.670;2023-08-30T10:12:48;8.07;;;4.80;;
2940;SDS011;1480;51.456;6.670;2023-08-30T10:15:15;7.50;;;5.47;;
2940;SDS011;1480;51.456;6.670;2023-08-30T10:17:44;8.73;;;5.60;;
2940;SDS011;1480;51.456;6.670;2023-08-30T10:20:12;6.93;;;4.80;;
2940;SDS011;1480;51.456;6.670;2023-08-30T10:22:39;9.50;;;5.13;;
2940;SDS011;1480;51.456;6.670;2023-08-30T10:25:08;7.50;;;5.83;;
2940;SDS011;1480;51.456;6.670;2023-08-30T10:27:37;6.73;;;5.37;;
2940;SDS011;1480;51.456;6.670;2023-08-30T10:30:06;9.10;;;5.97;;
2940;SDS011;1480;51.456;6.670;2023-08-30T10:32:37;8.20;;;6.17;;
2940;SDS011;1480;51.456;6.670;2023-08-30T10:35:05;8.27;;;5.10;;
2940;SDS011;1480;51.456;6.670;2023-08-30T10:37:33;8.00;;;5.73;;
2940;SDS011;1480;51.456;6.670;2023-08-30T10:40:00;10.43;;;6.50;;
2940;SDS011;1480;51.456;6.670;2023-08-30T10:42:28;7.83;;;6.37;;
2940;SDS011;1480;51.456;6.670;2023-08-30T10:44:56;10.10;;;6.13;;
2940;SDS011;1480;51.456;6.670;2023-08-30T10:47:24;9.70;;;5.20;;
2940;SDS011;1480;51.456;6.670;2023-08-30T10:49:53;7.87;;;6.07;;
2940;SDS011;1480;51.456;6.670;2023-08-30T10:52:20;7.90;;;4.80;;
2940;SDS011;1480;51.456;6.670;2023-08-30T10:54:49;6.03;;;4.70;;
2940;SDS011;1480;51.456;6.670;2023-08-30T10:57:18;7.03;;;4.47;;
2940;SDS011;1480;51.456;6.670;2023-08-30T11:02:30;5.93;;;4.40;;
2940;SDS011;1480;51.456;6.670;2023-08-30T11:04:57;6.43;;;4.00;;
2940;SDS011;1480;51.456;6.670;2023-08-30T11:07:24;6.03;;;3.87;;
2940;SDS011;1480;51.456;6.670;2023-08-30T11:09:53;5.80;;;3.87;;
2940;SDS011;1480;51.456;6.670;2023-08-30T11:12:19;5.37;;;4.23;;
2940;SDS011;1480;51.456;6.670;2023-08-30T11:14:47;4.93;;;3.63;;
2940;SDS011;1480;51.456;6.670;2023-08-30T11:17:15;8.47;;;3.70;;
2940;SDS011;1480;51.456;6.670;2023-08-30T11:19:42;5.37;;;4.37;;
2940;SDS011;1480;51.456;6.670;2023-08-30T11:22:09;5.93;;;4.00;;
2940;SDS011;1480;51.456;6.670;2023-08-30T11:24:35;7.90;;;4.20;;
2940;SDS011;1480;51.456;6.670;2023-08-30T11:27:04;4.37;;;3.47;;
2940;SDS011;1480;51.456;6.670;2023-08-30T11:29:31;5.70;;;3.13;;
2940;SDS011;1480;51.456;6.670;2023-08-30T11:31:57;5.40;;;3.37;;
2940;SDS011;1480;51.456;6.670;2023-08-30T11:34:24;4.83;;;3.40;;
2940;SDS011;1480;51.456;6.670;2023-08-30T11:36:51;3.93;;;3.20;;
2940;SDS011;1480;51.456;6.670;2023-08-30T11:39:18;5.20;;;4.30;;
2940;SDS011;1480;51.456;6.670;2023-08-30T11:41:45;5.40;;;3.27;;
2940;SDS011;1480;51.456;6.670;2023-08-30T11:44:13;4.50;;;3.33;;
2940;SDS011;1480;51.456;6.670;2023-08-30T11:46:41;4.83;;;3.57;;
2940;SDS011;1480;51.456;6.670;2023-08-30T11:49:08;4.23;;;3.20;;
2940;SDS011;1480;51.456;6.670;2023-08-30T11:51:35;4.87;;;3.50;;
2940;SDS011;1480;51.456;6.670;2023-08-30T11:54:03;5.07;;;3.03;;
2940;SDS011;1480;51.456;6.670;2023-08-30T11:56:30;4.30;;;3.20;;
2940;SDS011;1480;51.456;6.670;2023-08-30T11:58:56;4.30;;;3.23;;
2940;SDS011;1480;51.456;6.670;2023-08-30T12:01:25;3.17;;;2.70;;
2940;SDS011;1480;51.456;6.670;2023-08-30T12:03:51;4.07;;;2.70;;
2940;SDS011;1480;51.456;6.670;2023-08-30T12:06:18;5.50;;;2.93;;
2940;SDS011;1480;51.456;6.670;2023-08-30T12:08:45;5.50;;;2.83;;
2940;SDS011;1480;51.456;6.670;2023-08-30T12:11:17;4.40;;;3.13;;
2940;SDS011;1480;51.456;6.670;2023-08-30T12:13:45;4.17;;;3.30;;
2940;SDS011;1480;51.456;6.670;2023-08-30T12:16:15;6.90;;;2.17;;
2940;SDS011;1480;51.456;6.670;2023-08-30T12:18:43;5.10;;;3.43;;
2940;SDS011;1480;51.456;6.670;2023-08-30T12:21:10;3.50;;;2.60;;
2940;SDS011;1480;51.456;6.670;2023-08-30T12:23:39;4.20;;;3.00;;
2940;SDS011;1480;51.456;6.670;2023-08-30T12:26:06;3.57;;;2.60;;
2940;SDS011;1480;51.456;6.670;2023-08-30T12:28:34;4.73;;;2.77;;
2940;SDS011;1480;51.456;6.670;2023-08-30T12:31:02;4.30;;;2.57;;
2940;SDS011;1480;51.456;6.670;2023-08-30T12:33:30;4.37;;;3.00;;
2940;SDS011;1480;51.456;6.670;2023-08-30T12:35:58;3.90;;;2.77;;
2940;SDS011;1480;51.456;6.670;2023-08-30T12:38:25;3.77;;;2.73;;
2940;SDS011;1480;51.456;6.670;2023-08-30T12:40:52;4.73;;;3.43;;
2940;SDS011;1480;51.456;6.670;2023-08-30T12:43:20;4.30;;;3.00;;
2940;SDS011;1480;51.456;6.670;2023-08-30T12:45:47;3.23;;;2.60;;
2940;SDS011;1480;51.456;6.670;2023-08-30T12:48:15;6.13;;;4.00;;
2940;SDS011;1480;51.456;6.670;2023-08-30T12:50:43;4.13;;;3.27;;
2940;SDS011;1480;51.456;6.670;2023-08-30T12:53:15;3.97;;;2.80;;
2940;SDS011;1480;51.456;6.670;2023-08-30T12:55:42;4.23;;;3.13;;
2940;SDS011;1480;51.456;6.670;2023-08-30T12:58:09;5.20;;;3.57;;
2940;SDS011;1480;51.456;6.670;2023-08-30T13:00:36;6.53;;;3.67;;
2940;SDS011;1480;51.456;6.670;2023-08-30T13:03:03;5.90;;;3.87;;
2940;SDS011;1480;51.456;6.670;2023-08-30T13:05:31;3.50;;;3.07;;
2940;SDS011;1480;51.456;6.670;2023-08-30T13:07:58;3.77;;;2.97;;
2940;SDS011;1480;51.456;6.670;2023-08-30T13:10:26;5.53;;;4.20;;
2940;SDS011;1480;51.456;6.670;2023-08-30T13:12:53;4.67;;;3.20;;
2940;SDS011;1480;51.456;6.670;2023-08-30T13:15:20;7.23;;;4.20;;
2940;SDS011;1480;51.456;6.670;2023-08-30T13:17:47;5.33;;;3.80;;
2940;SDS011;1480;51.456;6.670;2023-08-30T13:20:13;4.60;;;3.03;;
2940;SDS011;1480;51.456;6.670;2023-08-30T13:22:40;3.87;;;2.57;;
2940;SDS011;1480;51.456;6.670;2023-08-30T13:25:07;4.17;;;3.27;;
2940;SDS011;1480;51.456;6.670;2023-08-30T13:27:35;4.00;;;3.27;;
2940;SDS011;1480;51.456;6.670;2023-08-30T13:30:02;6.57;;;5.13;;
2940;SDS011;1480;51.456;6.670;2023-08-30T13:32:29;3.97;;;2.77;;
2940;SDS011;1480;51.456;6.670;2023-08-30T13:34:56;5.00;;;3.00;;
2940;SDS011;1480;51.456;6.670;2023-08-30T13:37:22;3.63;;;2.60;;
2940;SDS011;1480;51.456;6.670;2023-08-30T13:39:49;3.10;;;2.70;;
2940;SDS011;1480;51.456;6.670;2023-08-30T13:42:16;3.17;;;2.73;;
2940;SDS011;1480;51.456;6.670;2023-08-30T13:44:44;3.57;;;2.30;;
2940;SDS011;1480;51.456;6.670;2023-08-30T13:47:11;4.70;;;2.60;;
2940;SDS011;1480;51.456;6.670;2023-08-30T13:49:37;5.83;;;3.27;;
2940;SDS011;1480;51.456;6.670;2023-08-30T13:52:04;3.40;;;2.87;;
2940;SDS011;1480;51.456;6.670;2023-08-30T13:54:32;6.07;;;3.13;;
2940;SDS011;1480;51.456;6.670;2023-08-30T13:56:59;2.57;;;2.10;;
2940;SDS011;1480;51.456;6.670;2023-08-30T13:59:26;4.00;;;3.20;;
2940;SDS011;1480;51.456;6.670;2023-08-30T14:01:54;3.73;;;2.87;;
2940;SDS011;1480;51.456;6.670;2023-08-30T14:04:22;4.70;;;3.13;;
2940;SDS011;1480;51.456;6.670;2023-08-30T14:06:50;3.60;;;2.43;;
2940;SDS011;1480;51.456;6.670;2023-08-30T14:09:17;4.30;;;3.10;;
2940;SDS011;1480;51.456;6.670;2023-08-30T14:11:44;6.90;;;4.13;;
2940;SDS011;1480;51.456;6.670;2023-08-30T14:14:10;4.23;;;3.40;;
2940;SDS011;1480;51.456;6.670;2023-08-30T14:16:37;3.90;;;3.23;;
2940;SDS011;1480;51.456;6.670;2023-08-30T14:19:05;3.70;;;3.07;;
2940;SDS011;1480;51.456;6.670;2023-08-30T14:21:32;3.73;;;2.67;;
2940;SDS011;1480;51.456;6.670;2023-08-30T14:23:58;5.37;;;2.63;;
2940;SDS011;1480;51.456;6.670;2023-08-30T14:26:26;4.97;;;3.60;;
2940;SDS011;1480;51.456;6.670;2023-08-30T14:28:52;6.17;;;3.30;;
2940;SDS011;1480;51.456;6.670;2023-08-30T14:31:19;3.83;;;3.20;;
2940;SDS011;1480;51.456;6.670;2023-08-30T14:33:46;5.10;;;3.20;;
2940;SDS011;1480;51.456;6.670;2023-08-30T14:36:14;3.90;;;2.77;;
2940;SDS011;1480;51.456;6.670;2023-08-30T14:38:40;6.73;;;3.60;;
2940;SDS011;1480;51.456;6.670;2023-08-30T14:41:07;4.47;;;2.60;;
2940;SDS011;1480;51.456;6.670;2023-08-30T14:43:34;4.60;;;3.47;;
2940;SDS011;1480;51.456;6.670;2023-08-30T14:46:01;4.50;;;4.03;;
2940;SDS011;1480;51.456;6.670;2023-08-30T14:48:27;7.33;;;4.20;;
2940;SDS011;1480;51.456;6.670;2023-08-30T14:50:55;5.30;;;3.37;;
2940;SDS011;1480;51.456;6.670;2023-08-30T14:53:23;6.57;;;4.60;;
2940;SDS011;1480;51.456;6.670;2023-08-30T14:55:50;9.73;;;5.20;;
2940;SDS011;1480;51.456;6.670;2023-08-30T14:58:16;4.77;;;3.83;;
2940;SDS011;1480;51.456;6.670;2023-08-30T15:00:43;8.33;;;3.93;;
2940;SDS011;1480;51.456;6.670;2023-08-30T15:03:10;7.10;;;4.63;;
2940;SDS011;1480;51.456;6.670;2023-08-30T15:05:37;5.47;;;4.57;;
2940;SDS011;1480;51.456;6.670;2023-08-30T15:08:05;6.43;;;4.77;;
2940;SDS011;1480;51.456;6.670;2023-08-30T15:10:33;10.10;;;6.00;;
2940;SDS011;1480;51.456;6.670;2023-08-30T15:12:59;6.20;;;4.73;;
2940;SDS011;1480;51.456;6.670;2023-08-30T15:15:26;8.57;;;5.90;;